Time;durP1;ratioP1;P1;durP2;ratioP2;P2;SDS_P1;SDS_P2;PMS_P1;PMS_P2;Temp;Humidity;BMP_temperature;BMP_pressure;BME280_temperature;BME280_humidity;BME280_pressure;Samples;Min_cycle;Max_cycle;Signal;HPM_P1;HPM_P2
2024/03/04 00:01:21;;;;;;;53.63;27.20;;;;;;;4.24;59.13;100518.55;124458;1099;104273;-80
2024/03/04 00:03:52;;;;;;;56.70;28.07;;;;;;;4.22;59.68;100512.38;123996;1099;104171;-80
2024/03/04 00:06:23;;;;;;;54.53;25.37;;;;;;;4.20;59.63;100514.88;124117;1099;104380;-80
2024/03/04 00:08:55;;;;;;;49.77;24.80;;;;;;;4.17;59.41;100501.70;124150;1099;104172;-79
2024/03/04 00:11:26;;;;;;;49.70;25.13;;;;;;;4.16;59.60;100512.00;124576;1099;104232;-80
2024/03/04 00:13:58;;;;;;;48.27;25.47;;;;;;;4.12;59.87;100506.62;124351;1099;104370;-80
2024/03/04 00:16:29;;;;;;;52.97;24.87;;;;;;;4.10;59.91;100505.64;124017;1099;104232;-80
2024/03/04 00:19:00;;;;;;;46.77;23.73;;;;;;;4.07;60.07;100500.26;124405;1099;104427;-79
2024/03/04 00:21:31;;;;;;;50.80;25.70;;;;;;;4.02;60.04;100501.69;124249;1099;104316;-80
2024/03/04 00:24:03;;;;;;;50.97;26.07;;;;;;;3.99;60.16;100503.17;124515;1099;104251;-80
2024/03/04 00:26:35;;;;;;;51.70;27.43;;;;;;;3.96;60.53;100499.59;124210;1099;104181;-81
2024/03/04 00:29:06;;;;;;;52.60;25.83;;;;;;;3.94;59.79;100501.20;124507;1099;104223;-79
2024/03/04 00:31:38;;;;;;;50.80;25.23;;;;;;;3.92;60.06;100497.59;124099;1102;104418;-80
2024/03/04 00:34:09;;;;;;;51.37;26.50;;;;;;;3.91;60.08;100506.20;124652;1099;104217;-80
2024/03/04 00:36:40;;;;;;;53.00;25.50;;;;;;;3.91;60.08;100501.02;124310;1099;104194;-80
2024/03/04 00:39:12;;;;;;;54.27;25.83;;;;;;;3.90;59.80;100507.00;124007;1099;104360;-80
2024/03/04 00:41:43;;;;;;;51.33;25.90;;;;;;;3.87;60.34;100504.20;124485;1099;104251;-80
2024/03/04 00:44:14;;;;;;;48.37;25.63;;;;;;;3.85;60.28;100505.83;124379;1099;104370;-79
2024/03/04 00:46:45;;;;;;;52.90;26.23;;;;;;;3.83;59.94;100520.38;124396;1099;104307;-79
2024/03/04 00:49:17;;;;;;;53.87;25.03;;;;;;;3.81;60.61;100515.91;124534;1099;104246;-80
2024/03/04 00:51:48;;;;;;;50.50;24.73;;;;;;;3.78;60.79;100516.61;124102;1099;104392;-79
2024/03/04 00:54:19;;;;;;;49.87;25.27;;;;;;;3.76;60.27;100515.63;124064;1099;104178;-79
2024/03/04 00:56:50;;;;;;;54.93;25.17;;;;;;;3.74;60.48;100509.42;124398;1098;104316;-80
2024/03/04 00:59:23;;;;;;;52.80;24.90;;;;;;;3.71;60.37;100509.22;124185;1099;104329;-80
2024/03/04 01:01:54;;;;;;;51.90;24.83;;;;;;;3.69;61.50;100519.51;124046;1099;104322;-80
2024/03/04 01:04:28;;;;;;;50.03;24.77;;;;;;;3.67;61.03;100512.45;123949;1099;104274;-80
2024/03/04 01:07:00;;;;;;;48.07;23.60;;;;;;;3.66;60.91;100515.83;123970;1099;104299;-79
2024/03/04 01:09:31;;;;;;;48.63;23.87;;;;;;;3.66;60.31;100523.62;124080;1099;104309;-80
2024/03/04 01:12:02;;;;;;;49.80;24.83;;;;;;;3.68;60.90;100528.12;124197;1099;104219;-80
2024/03/04 01:14:34;;;;;;;46.27;23.70;;;;;;;3.69;60.55;100529.00;124641;1099;104223;-80
2024/03/04 01:17:12;;;;;;;50.50;23.97;;;;;;;3.67;60.59;100520.23;124272;1099;104226;-79
2024/03/04 01:19:46;;;;;;;48.30;24.73;;;;;;;3.66;61.20;100524.53;123853;1099;104636;-80
2024/03/04 01:22:18;;;;;;;44.80;23.00;;;;;;;3.64;60.64;100520.03;123996;1099;104138;-79
2024/03/04 01:24:50;;;;;;;50.07;24.13;;;;;;;3.64;61.50;100526.11;124169;1099;104242;-80
2024/03/04 01:27:22;;;;;;;48.10;24.10;;;;;;;3.65;61.66;100527.03;124455;1099;104313;-80
2024/03/04 01:29:53;;;;;;;45.67;23.33;;;;;;;3.64;61.48;100530.42;124087;1099;104251;-80
2024/03/04 01:32:24;;;;;;;48.27;23.77;;;;;;;3.60;61.06;100530.22;123973;1099;104233;-79
2024/03/04 01:34:55;;;;;;;47.20;24.47;;;;;;;3.59;61.12;100541.39;124434;1099;104290;-79
2024/03/04 01:37:27;;;;;;;45.50;23.00;;;;;;;3.59;60.96;100533.60;123905;1099;104242;-80
2024/03/04 01:39:58;;;;;;;54.90;24.23;;;;;;;3.57;61.32;100543.00;124359;1099;104255;-80
2024/03/04 01:42:30;;;;;;;46.83;24.20;;;;;;;3.55;61.04;100543.69;124289;1099;104267;-79
2024/03/04 01:45:02;;;;;;;45.80;22.97;;;;;;;3.52;61.53;100548.67;124363;1099;104195;-80
2024/03/04 01:47:36;;;;;;;50.63;23.83;;;;;;;3.51;61.23;100546.91;124322;1099;104235;-80
2024/03/04 01:50:10;;;;;;;51.07;24.93;;;;;;;3.51;61.30;100547.79;124525;1099;104302;-80
2024/03/04 01:52:42;;;;;;;47.93;24.60;;;;;;;3.51;61.76;100546.91;124296;1099;104366;-79
2024/03/04 01:55:13;;;;;;;51.37;24.53;;;;;;;3.49;61.50;100554.59;124232;1099;104251;-79
2024/03/04 01:57:45;;;;;;;54.20;24.17;;;;;;;3.50;61.89;100553.77;124548;1099;104270;-79
2024/03/04 02:00:19;;;;;;;52.40;24.60;;;;;;;3.48;61.89;100552.78;124217;1098;104185;-79
2024/03/04 02:02:51;;;;;;;48.60;24.77;;;;;;;3.45;61.93;100551.70;124488;1099;104341;-80
2024/03/04 02:05:23;;;;;;;46.37;24.00;;;;;;;3.43;62.20;100556.78;124326;1099;104217;-80
2024/03/04 02:07:56;;;;;;;51.60;24.97;;;;;;;3.41;62.17;100558.36;124282;1099;104188;-79
2024/03/04 02:10:27;;;;;;;49.63;23.87;;;;;;;3.39;62.10;100557.37;124429;1099;104246;-79
2024/03/04 02:12:59;;;;;;;52.47;25.20;;;;;;;3.38;61.91;100561.67;124332;1098;104239;-79
2024/03/04 02:15:34;;;;;;;49.37;24.80;;;;;;;3.38;62.55;100561.67;124203;1099;104387;-80
2024/03/04 02:18:07;;;;;;;46.27;23.80;;;;;;;3.37;62.68;100558.98;124315;1099;104286;-79
2024/03/04 02:20:42;;;;;;;46.97;23.73;;;;;;;3.36;62.00;100567.55;124487;1099;104229;-78
2024/03/04 02:23:14;;;;;;;50.00;24.60;;;;;;;3.33;62.62;100563.04;124402;1099;104261;-79
2024/03/04 02:25:55;;;;;;;51.63;26.37;;;;;;;3.31;62.18;100568.95;124144;1099;104256;-78
2024/03/04 02:28:28;;;;;;;51.33;26.90;;;;;;;3.26;62.26;100562.53;124889;1099;104341;-78
2024/03/04 02:31:05;;;;;;;54.77;28.43;;;;;;;3.18;62.62;100568.14;124333;1098;104297;-78
2024/03/04 02:33:42;;;;;;;52.90;27.90;;;;;;;3.14;62.66;100573.91;125010;1099;104245;-78
2024/03/04 02:36:14;;;;;;;57.27;28.30;;;;;;;3.09;62.53;100577.89;124843;1099;104805;-78
2024/03/04 02:38:45;;;;;;;59.03;28.97;;;;;;;3.02;62.73;100570.49;124760;1099;104275;-79
2024/03/04 02:41:17;;;;;;;58.33;28.77;;;;;;;2.97;62.49;100574.48;124237;1099;104287;-78
2024/03/04 02:43:48;;;;;;;60.85;28.70;;;;;;;2.97;62.37;100582.25;124383;1099;104200;-79
2024/03/04 02:46:20;;;;;;;53.53;26.33;;;;;;;2.96;62.85;100580.45;124589;1099;104376;-78
2024/03/04 02:48:55;;;;;;;52.67;26.53;;;;;;;2.96;62.72;100575.27;124601;1099;104348;-79
2024/03/04 02:51:24;;;;;;;;;;;;;;;2.94;62.57;100585.53;124795;1099;104271;-78
2024/03/04 02:53:57;;;;;;;53.87;26.67;;;;;;;2.95;62.32;100584.74;124365;1099;104335;-79
2024/03/04 02:56:28;;;;;;;54.60;26.87;;;;;;;2.96;62.58;100586.55;124793;1099;104657;-79
2024/03/04 02:59:00;;;;;;;56.40;27.43;;;;;;;2.98;62.76;100584.06;124777;1099;104182;-79
2024/03/04 03:01:34;;;;;;;53.43;27.27;;;;;;;2.96;62.54;100586.55;124769;1099;104248;-78
2024/03/04 03:04:05;;;;;;;56.33;26.70;;;;;;;2.94;62.96;100588.12;124489;1099;104303;-78
2024/03/04 03:06:36;;;;;;;53.50;27.93;;;;;;;2.93;62.78;100585.42;124406;1099;104341;-78
2024/03/04 03:09:07;;;;;;;57.20;27.50;;;;;;;2.92;62.28;100589.72;124684;1099;104304;-78
2024/03/04 03:11:39;;;;;;;56.03;27.00;;;;;;;2.88;63.05;100582.52;124616;1099;104224;-78
2024/03/04 03:14:10;;;;;;;56.37;27.63;;;;;;;2.85;62.61;100591.01;124533;1099;104191;-79
2024/03/04 03:16:41;;;;;;;53.97;26.93;;;;;;;2.85;63.16;100585.83;124908;1099;102702;-78
2024/03/04 03:19:24;;;;;;;52.57;26.87;;;;;;;2.86;62.93;100590.19;124716;1099;104399;-79
2024/03/04 03:21:56;;;;;;;55.35;27.80;;;;;;;2.85;63.16;100588.42;124981;1098;104171;-79
2024/03/04 03:24:27;;;;;;;56.53;27.77;;;;;;;2.87;63.42;100583.34;125099;1099;104243;-78
2024/03/04 03:26:58;;;;;;;55.43;26.77;;;;;;;2.86;62.41;100591.89;124743;1099;104287;-78
2024/03/04 03:29:29;;;;;;;61.20;27.40;;;;;;;2.84;62.86;100586.61;124856;1099;104491;-79
2024/03/04 03:32:00;;;;;;;57.20;27.87;;;;;;;2.85;63.44;100587.50;124948;1099;104325;-78
2024/03/04 03:34:31;;;;;;;54.73;26.63;;;;;;;2.81;63.37;100583.81;124436;1099;104254;-79
2024/03/04 03:37:03;;;;;;;56.47;27.80;;;;;;;2.80;63.64;100586.30;124499;1099;104321;-78
2024/03/04 03:39:34;;;;;;;59.00;28.77;;;;;;;2.79;62.48;100588.00;124438;1099;102083;-78
2024/03/04 03:42:07;;;;;;;56.15;27.10;;;;;;;2.80;63.50;100584.59;124265;1099;104304;-79
2024/03/04 03:44:39;;;;;;;53.98;27.37;;;;;;;2.80;63.16;100583.70;124246;1099;104623;-78
2024/03/04 03:47:10;;;;;;;54.27;26.17;;;;;;;2.80;63.66;100584.59;124686;1099;104249;-79
2024/03/04 03:49:41;;;;;;;56.37;27.20;;;;;;;2.78;62.86;100586.19;124877;1099;105076;-79
2024/03/04 03:52:12;;;;;;;64.93;28.73;;;;;;;2.75;63.54;100580.80;124814;1099;104270;-79
2024/03/04 03:54:44;;;;;;;60.13;27.70;;;;;;;2.70;63.37;100583.08;124390;1099;104251;-79
2024/03/04 03:57:15;;;;;;;57.57;28.23;;;;;;;2.68;63.61;100581.16;124930;1099;104264;-78
2024/03/04 03:59:46;;;;;;;61.50;27.87;;;;;;;2.66;63.55;100577.58;124255;1099;104264;-78
2024/03/04 04:02:18;;;;;;;57.90;27.35;;;;;;;2.67;63.33;100579.38;124483;1099;104296;-79
2024/03/04 04:04:49;;;;;;;63.53;27.77;;;;;;;2.65;63.37;100578.36;124294;1099;104310;-79
2024/03/04 04:07:20;;;;;;;56.90;27.63;;;;;;;2.64;63.91;100585.25;124278;1099;104169;-78
2024/03/04 04:09:51;;;;;;;59.00;27.33;;;;;;;2.64;64.14;100585.25;124880;1099;104211;-79
2024/03/04 04:12:22;;;;;;;59.07;27.90;;;;;;;2.63;63.84;100580.88;124261;1099;104274;-79
2024/03/04 04:14:53;;;;;;;56.07;27.60;;;;;;;2.65;63.64;100586.13;124368;1099;104246;-78
2024/03/04 04:17:25;;;;;;;55.47;27.73;;;;;;;2.65;63.84;100580.95;124294;1099;104300;-79
2024/03/04 04:19:56;;;;;;;61.73;28.20;;;;;;;2.62;63.89;100581.66;124463;1098;104331;-79
2024/03/04 04:22:29;;;;;;;58.67;28.50;;;;;;;2.63;64.10;100585.14;124353;1098;104057;-81
2024/03/04 04:25:01;;;;;;;65.28;28.38;;;;;;;2.61;64.39;100589.33;124715;1099;104245;-78
2024/03/04 04:27:32;;;;;;;55.70;27.35;;;;;;;2.61;64.58;100591.92;124742;1099;104198;-78
2024/03/04 04:30:03;;;;;;;62.37;28.23;;;;;;;2.61;63.91;100594.52;125009;1099;104245;-78
2024/03/04 04:32:35;;;;;;;56.20;28.10;;;;;;;2.60;63.50;100595.29;124575;1099;104162;-78
2024/03/04 04:35:07;;;;;;;56.87;28.87;;;;;;;2.59;63.69;100598.70;124993;1099;104309;-78
2024/03/04 04:37:38;;;;;;;57.40;27.17;;;;;;;2.60;63.72;100603.98;124242;1099;104271;-78
2024/03/04 04:40:12;;;;;;;58.17;28.40;;;;;;;2.57;64.54;100603.77;124811;1099;104313;-79
2024/03/04 04:42:43;;;;;;;60.52;28.17;;;;;;;2.57;63.74;100602.85;124250;1099;104274;-79
2024/03/04 04:45:14;;;;;;;59.97;27.90;;;;;;;2.55;64.08;100607.92;123924;1099;104480;-79
2024/03/04 04:47:45;;;;;;;61.17;28.53;;;;;;;2.54;64.47;100610.41;124087;1099;104184;-78
2024/03/04 04:50:17;;;;;;;58.80;28.67;;;;;;;2.54;65.04;100610.41;124158;1099;104251;-78
2024/03/04 04:52:48;;;;;;;57.83;28.97;;;;;;;2.53;64.19;100609.52;123985;1099;104258;-79
2024/03/04 04:55:19;;;;;;;55.53;27.83;;;;;;;2.54;64.46;100618.18;123862;1099;104343;-79
2024/03/04 04:57:51;;;;;;;59.03;28.40;;;;;;;2.54;64.52;100620.77;123922;1099;104307;-78
2024/03/04 05:00:23;;;;;;;58.37;28.40;;;;;;;2.55;64.20;100622.58;124143;1099;104169;-78
2024/03/04 05:02:55;;;;;;;55.63;27.97;;;;;;;2.58;64.63;100628.86;124062;1099;104639;-80
2024/03/04 05:05:27;;;;;;;61.10;29.33;;;;;;;2.60;64.69;100627.30;124325;1099;104226;-79
2024/03/04 05:07:58;;;;;;;57.07;28.47;;;;;;;2.60;65.09;100622.12;124352;1099;104315;-79
2024/03/04 05:10:29;;;;;;;59.67;28.97;;;;;;;2.60;64.90;100626.38;124352;1098;104313;-79
2024/03/04 05:13:00;;;;;;;52.17;27.40;;;;;;;2.62;65.57;100632.59;124647;1099;104469;-80
2024/03/04 05:15:31;;;;;;;55.73;27.70;;;;;;;2.64;65.17;100621.52;124368;1099;104249;-79
2024/03/04 05:18:04;;;;;;;51.40;26.50;;;;;;;2.68;65.67;100628.72;124064;1099;110771;-79
2024/03/04 05:20:35;;;;;;;56.93;28.20;;;;;;;2.72;65.34;100632.41;124047;1099;104277;-80
2024/03/04 05:23:07;;;;;;;57.13;29.03;;;;;;;2.78;65.18;100632.84;124098;1099;104364;-79
2024/03/04 05:25:38;;;;;;;57.15;29.35;;;;;;;2.81;65.10;100625.27;123932;1099;103238;-79
2024/03/04 05:28:10;;;;;;;56.67;28.53;;;;;;;2.88;65.26;100634.36;124026;1099;104236;-80
2024/03/04 05:30:42;;;;;;;60.17;28.10;;;;;;;2.94;65.69;100632.19;123955;1099;104271;-80
2024/03/04 05:33:13;;;;;;;60.33;27.73;;;;;;;3.01;65.23;100636.13;124238;1099;104277;-80
2024/03/04 05:35:44;;;;;;;57.70;29.40;;;;;;;3.10;65.89;100641.02;123946;1099;104299;-81
2024/03/04 05:38:16;;;;;;;54.30;28.77;;;;;;;3.18;65.92;100640.75;123997;1099;108245;-81
2024/03/04 05:40:47;;;;;;;58.47;28.90;;;;;;;3.30;66.31;100639.77;124515;1099;104246;-79
2024/03/04 05:43:18;;;;;;;52.80;27.13;;;;;;;3.40;65.86;100640.48;124490;1099;104268;-79
2024/03/04 05:45:49;;;;;;;55.27;27.43;;;;;;;3.51;66.41;100648.09;124396;1099;104273;-79
2024/03/04 05:48:20;;;;;;;59.53;29.80;;;;;;;3.58;66.26;100642.48;124298;1099;104157;-79
2024/03/04 05:50:52;;;;;;;54.90;27.97;;;;;;;3.64;66.37;100650.68;124673;1099;104335;-79
2024/03/04 05:53:25;;;;;;;56.53;27.77;;;;;;;3.71;66.88;100649.38;124501;1099;104292;-78
2024/03/04 05:55:56;;;;;;;54.95;29.02;;;;;;;3.79;66.55;100645.60;124361;1099;104257;-78
2024/03/04 05:58:27;;;;;;;55.83;28.63;;;;;;;3.85;66.47;100655.47;124124;1099;104315;-78
2024/03/04 06:00:59;;;;;;;56.43;29.00;;;;;;;3.92;66.14;100655.97;124590;1099;104374;-79
2024/03/04 06:03:30;;;;;;;62.43;27.53;;;;;;;4.02;67.05;100644.50;124435;1099;104271;-78
2024/03/04 06:06:01;;;;;;;54.87;28.00;;;;;;;4.13;66.69;100647.78;124396;1098;104278;-80
2024/03/04 06:08:36;;;;;;;62.90;29.87;;;;;;;4.21;67.02;100649.16;124404;1099;104354;-81
2024/03/04 06:11:07;;;;;;;57.23;29.27;;;;;;;4.35;66.48;100643.92;124186;1099;104274;-78
2024/03/04 06:13:38;;;;;;;54.83;27.10;;;;;;;4.51;66.58;100646.69;124026;1099;104432;-78
2024/03/04 06:16:09;;;;;;;53.67;28.03;;;;;;;4.67;66.98;100646.84;124676;1099;104652;-79
2024/03/04 06:18:41;;;;;;;55.83;27.77;;;;;;;4.84;66.99;100645.25;124306;1099;104277;-78
2024/03/04 06:21:12;;;;;;;47.90;23.63;;;;;;;4.96;66.81;100642.51;124101;1099;104159;-79
2024/03/04 06:23:43;;;;;;;54.00;26.83;;;;;;;5.08;66.89;100644.05;124394;1099;104297;-79
2024/03/04 06:26:15;;;;;;;51.50;25.63;;;;;;;5.21;66.65;100639.66;124529;1099;104277;-78
2024/03/04 06:28:46;;;;;;;51.80;25.37;;;;;;;5.33;67.02;100647.31;124733;1099;104208;-77
2024/03/04 06:31:18;;;;;;;55.50;26.33;;;;;;;5.47;67.32;100647.20;124573;1099;104241;-77
2024/03/04 06:33:51;;;;;;;41.83;22.93;;;;;;;5.65;66.91;100643.07;124606;1099;104344;-78
2024/03/04 06:36:23;;;;;;;52.17;25.03;;;;;;;5.84;66.54;100652.83;124476;1099;104245;-77
2024/03/04 06:38:54;;;;;;;49.27;24.13;;;;;;;6.04;67.20;100651.39;124723;1099;104408;-78
2024/03/04 06:41:38;;;;;;;56.60;27.50;;;;;;;6.22;66.39;100650.65;124325;1099;104308;-78
2024/03/04 06:44:09;;;;;;;52.35;26.97;;;;;;;6.42;66.51;100651.72;124394;1099;104222;-80
2024/03/04 06:46:40;;;;;;;48.97;25.77;;;;;;;6.59;66.01;100647.42;124395;1099;104351;-80
2024/03/04 06:49:13;;;;;;;47.03;24.60;;;;;;;6.76;66.22;100650.94;124899;1099;104342;-79
2024/03/04 06:51:44;;;;;;;51.97;23.27;;;;;;;6.90;65.97;100644.73;125030;1099;103401;-78
2024/03/04 06:54:16;;;;;;;47.50;22.63;;;;;;;7.01;65.49;100635.78;124974;1099;103320;-79
2024/03/04 06:56:48;;;;;;;49.17;24.97;;;;;;;7.17;65.48;100637.46;125105;1099;104174;-78
2024/03/04 06:59:19;;;;;;;44.87;21.80;;;;;;;7.28;65.70;100626.69;124426;1099;104261;-78
2024/03/04 07:01:51;;;;;;;46.73;22.13;;;;;;;7.39;65.45;100635.95;124478;1099;104333;-79
2024/03/04 07:04:24;;;;;;;47.20;23.53;;;;;;;7.49;65.71;100632.97;125109;1099;104239;-80
2024/03/04 07:06:56;;;;;;;43.40;21.70;;;;;;;7.55;65.44;100635.00;124994;1099;104188;-79
2024/03/04 07:09:34;;;;;;;44.20;21.95;;;;;;;7.54;64.17;100630.59;124910;1099;104236;-79
2024/03/04 07:12:07;;;;;;;41.43;19.80;;;;;;;7.47;64.36;100634.61;124940;1099;104197;-79
2024/03/04 07:14:41;;;;;;;46.13;23.13;;;;;;;7.47;63.83;100629.39;125019;1099;104220;-77
2024/03/04 07:17:12;;;;;;;51.03;24.17;;;;;;;7.47;64.31;100624.17;124816;1099;104245;-78
2024/03/04 07:19:43;;;;;;;46.17;22.90;;;;;;;7.54;64.34;100630.59;125192;1099;103463;-79
2024/03/04 07:22:15;;;;;;;46.50;22.17;;;;;;;7.61;64.78;100637.92;124687;1099;104242;-78
2024/03/04 07:24:47;;;;;;;43.87;20.70;;;;;;;7.67;63.60;100639.95;124650;1099;104274;-79
2024/03/04 07:27:18;;;;;;;41.50;20.23;;;;;;;7.68;64.09;100640.03;124510;1099;104227;-79
2024/03/04 07:29:51;;;;;;;44.00;20.93;;;;;;;7.76;64.33;100640.41;124884;1099;104224;-80
2024/03/04 07:32:23;;;;;;;44.15;20.65;;;;;;;7.83;64.30;100634.64;124664;1099;104262;-78
2024/03/04 07:34:54;;;;;;;43.33;19.83;;;;;;;7.87;64.24;100631.37;125043;1099;104179;-78
2024/03/04 07:37:26;;;;;;;43.80;18.57;;;;;;;7.91;63.80;100635.90;124676;1099;101837;-79
2024/03/04 07:39:57;;;;;;;43.93;20.10;;;;;;;7.91;64.14;100640.24;124597;1099;102838;-79
2024/03/04 07:42:29;;;;;;;41.70;19.77;;;;;;;7.91;64.13;100628.06;124566;1097;104268;-77
2024/03/04 07:45:00;;;;;;;37.47;17.80;;;;;;;7.97;64.45;100630.09;124922;1099;104200;-77
2024/03/04 07:47:32;;;;;;;38.17;18.10;;;;;;;7.96;63.52;100632.63;124663;1099;104246;-78
2024/03/04 07:50:03;;;;;;;35.20;16.40;;;;;;;7.93;63.73;100633.36;124362;1099;104374;-78
2024/03/04 07:52:36;;;;;;;35.50;17.13;;;;;;;7.90;63.16;100631.52;124890;1099;104274;-76
2024/03/04 07:55:12;;;;;;;34.00;15.30;;;;;;;7.93;63.23;100633.36;125306;1098;104175;-78
2024/03/04 07:57:44;;;;;;;32.50;15.10;;;;;;;8.03;63.89;100634.73;126058;1102;102801;-78
2024/03/04 08:00:15;;;;;;;33.67;15.27;;;;;;;8.13;63.15;100636.94;126615;1098;102362;-78
2024/03/04 08:02:47;;;;;;;37.20;16.07;;;;;;;8.17;63.23;100636.27;126730;1098;102509;-78
2024/03/04 08:05:18;;;;;;;34.97;15.90;;;;;;;8.21;63.20;100635.61;124826;1099;104223;-78
2024/03/04 08:07:49;;;;;;;32.40;14.97;;;;;;;8.30;62.79;100642.08;124675;1099;104175;-78
2024/03/04 08:10:20;;;;;;;31.77;13.53;;;;;;;8.39;62.68;100647.74;124470;1099;104139;-78
2024/03/04 08:12:52;;;;;;;31.07;14.90;;;;;;;8.45;62.50;100640.22;124626;1099;104176;-78
2024/03/04 08:15:24;;;;;;;35.00;14.30;;;;;;;8.48;62.93;100637.75;124706;1099;104242;-78
2024/03/04 08:17:55;;;;;;;34.87;14.03;;;;;;;8.56;62.86;100641.60;125310;1099;104235;-78
2024/03/04 08:20:27;;;;;;;27.97;13.17;;;;;;;8.63;61.86;100633.22;124653;1099;102989;-78
2024/03/04 08:22:59;;;;;;;33.43;14.10;;;;;;;8.69;62.66;100635.20;124829;1099;104073;-79
2024/03/04 08:25:30;;;;;;;29.00;14.20;;;;;;;8.75;62.09;100631.98;125105;1099;104239;-78
2024/03/04 08:28:02;;;;;;;32.27;14.00;;;;;;;8.77;62.51;100626.00;124604;1099;104398;-78
2024/03/04 08:30:33;;;;;;;34.90;14.10;;;;;;;8.85;62.22;100618.50;124925;1099;104227;-79
2024/03/04 08:33:04;;;;;;;34.90;14.77;;;;;;;8.93;62.12;100622.34;124892;1099;104182;-78
2024/03/04 08:35:36;;;;;;;30.37;13.77;;;;;;;8.96;61.58;100625.09;124549;1102;104316;-78
2024/03/04 08:38:07;;;;;;;40.07;14.90;;;;;;;9.03;61.63;100618.39;124488;1099;104210;-78
2024/03/04 08:40:38;;;;;;;36.00;14.23;;;;;;;9.08;60.95;100615.98;124470;1099;104290;-78
2024/03/04 08:43:10;;;;;;;34.73;13.77;;;;;;;9.09;61.26;100609.92;124804;1099;104281;-79
2024/03/04 08:45:41;;;;;;;32.93;14.50;;;;;;;9.23;61.47;100606.17;124788;1099;104446;-78
2024/03/04 08:48:13;;;;;;;29.63;13.70;;;;;;;9.32;61.06;100609.18;124871;1099;104357;-79
2024/03/04 08:50:44;;;;;;;32.53;14.00;;;;;;;9.33;61.50;100610.98;124590;1099;104172;-79
2024/03/04 08:53:15;;;;;;;31.10;14.77;;;;;;;9.39;61.16;100605.09;124989;1099;104297;-77
2024/03/04 08:55:46;;;;;;;35.30;14.80;;;;;;;9.45;61.35;100605.34;124498;1099;104290;-78
2024/03/04 08:58:17;;;;;;;32.27;13.70;;;;;;;9.44;60.87;100607.90;125095;1099;104179;-79
2024/03/04 09:00:48;;;;;;;33.17;13.00;;;;;;;9.47;60.83;100601.09;124461;1099;102734;-78
2024/03/04 09:03:20;;;;;;;32.93;13.63;;;;;;;9.54;60.46;100599.61;124871;1099;104242;-79
2024/03/04 09:05:51;;;;;;;32.55;13.85;;;;;;;9.67;61.01;100601.00;124825;1099;103162;-78
2024/03/04 09:08:22;;;;;;;35.80;14.10;;;;;;;9.70;60.14;100601.12;124942;1099;104206;-79
2024/03/04 09:10:54;;;;;;;28.67;12.80;;;;;;;9.74;59.86;100595.19;124473;1099;104240;-78
2024/03/04 09:13:27;;;;;;;;;;;;;;;9.74;58.48;100594.27;124570;1099;104210;-78
2024/03/04 09:15:58;;;;;;;31.65;12.50;;;;;;;9.83;59.99;100594.64;124812;1099;104267;-78
2024/03/04 09:18:29;;;;;;;31.27;12.90;;;;;;;9.87;59.89;100579.10;125083;1099;104103;-78
2024/03/04 09:21:07;;;;;;;26.50;11.57;;;;;;;9.88;59.35;100582.64;124869;1099;102991;-79
2024/03/04 09:23:40;;;;;;;31.10;11.40;;;;;;;10.04;59.64;100578.88;125198;1099;104241;-79
2024/03/04 09:26:12;;;;;;;29.90;12.03;;;;;;;10.17;60.00;100581.12;124768;1099;104606;-79
2024/03/04 09:28:52;;;;;;;32.90;13.17;;;;;;;10.17;58.74;100570.64;124545;1102;103609;-79
2024/03/04 09:31:26;;;;;;;34.00;12.37;;;;;;;10.18;58.77;100566.31;127018;1098;102936;-79
2024/03/04 09:34:00;;;;;;;31.63;12.33;;;;;;;10.24;59.33;100562.19;126735;1099;102754;-79
2024/03/04 09:36:32;;;;;;;30.00;10.90;;;;;;;10.38;59.47;100569.73;125114;1099;104169;-79
2024/03/04 09:39:05;;;;;;;27.67;10.20;;;;;;;10.47;58.58;100563.91;125176;1099;102937;-80
2024/03/04 09:41:39;;;;;;;25.07;8.93;;;;;;;10.55;58.04;100563.37;124832;1099;104174;-79
2024/03/04 09:44:12;;;;;;;26.47;8.53;;;;;;;10.63;58.58;100565.36;124835;1099;104227;-80
2024/03/04 09:46:45;;;;;;;24.20;8.23;;;;;;;10.68;56.97;100566.44;125326;1099;104159;-80
2024/03/04 09:49:18;;;;;;;25.80;8.10;;;;;;;10.70;58.11;100559.51;124817;1099;104242;-79
2024/03/04 09:51:51;;;;;;;29.23;8.28;;;;;;;10.79;58.19;100562.47;124700;1099;102941;-80
2024/03/04 09:54:36;;;;;;;20.93;7.53;;;;;;;10.89;57.09;100551.47;124940;1099;103036;-80
2024/03/04 09:57:08;;;;;;;21.90;7.93;;;;;;;10.94;57.38;100551.63;125060;1099;104191;-80
2024/03/04 09:59:39;;;;;;;24.37;7.73;;;;;;;10.99;57.41;100550.05;125025;1099;102048;-79
2024/03/04 10:02:12;;;;;;;20.23;8.43;;;;;;;11.02;57.05;100547.52;124628;1099;102790;-80
2024/03/04 10:04:45;;;;;;;23.27;8.08;;;;;;;11.07;57.31;100551.19;124575;1099;104261;-80
2024/03/04 10:07:16;;;;;;;19.70;7.60;;;;;;;11.14;57.22;100534.81;125058;1099;104593;-81
2024/03/04 10:09:47;;;;;;;23.27;8.37;;;;;;;11.21;57.08;100527.14;125087;1099;104219;-80
2024/03/04 10:12:19;;;;;;;18.10;7.57;;;;;;;11.27;56.96;100532.61;125079;1099;104149;-80
2024/03/04 10:15:09;;;;;;;18.37;6.90;;;;;;;11.32;55.11;100525.77;125031;1099;103718;-80
2024/03/04 10:17:43;;;;;;;19.17;7.63;;;;;;;11.32;55.98;100529.27;124977;1098;103256;-80
2024/03/04 10:20:15;;;;;;;20.77;7.47;;;;;;;11.29;55.80;100517.78;124870;1099;104246;-78
2024/03/04 10:22:46;;;;;;;22.00;7.77;;;;;;;11.32;55.70;100524.02;125205;1099;104268;-78
2024/03/04 10:25:19;;;;;;;22.10;8.10;;;;;;;11.41;55.88;100528.69;124965;1099;103959;-77
2024/03/04 10:27:53;;;;;;;24.83;8.20;;;;;;;11.51;55.61;100529.88;124862;1099;104219;-77
2024/03/04 10:30:26;;;;;;;26.70;7.97;;;;;;;11.57;55.29;100523.94;125012;1099;104162;-78
2024/03/04 10:32:58;;;;;;;21.70;7.35;;;;;;;11.62;55.62;100511.82;125063;1098;102165;-78
2024/03/04 10:35:30;;;;;;;26.40;7.47;;;;;;;11.67;55.78;100504.96;125103;1099;102215;-79
2024/03/04 10:38:03;;;;;;;29.50;7.67;;;;;;;11.72;54.87;100503.39;125329;1099;104245;-78
2024/03/04 10:40:36;;;;;;;23.02;6.92;;;;;;;11.76;54.80;100496.48;124872;1099;104217;-78
2024/03/04 10:43:09;;;;;;;22.70;7.17;;;;;;;11.77;54.06;100498.28;124694;1099;104220;-78
2024/03/04 10:45:42;;;;;;;24.23;7.67;;;;;;;11.84;54.44;100497.60;125062;1099;102951;-79
2024/03/04 10:48:14;;;;;;;24.13;7.70;;;;;;;11.87;54.76;100493.35;124883;1099;104166;-79
2024/03/04 10:50:47;;;;;;;23.67;7.17;;;;;;;11.90;54.59;100481.13;124764;1099;104223;-79
2024/03/04 10:53:18;;;;;;;23.00;7.33;;;;;;;11.95;54.18;100485.73;124989;1099;102492;-78
2024/03/04 10:55:55;;;;;;;24.40;7.30;;;;;;;11.98;54.48;100491.08;124936;1099;104325;-79
2024/03/04 10:58:28;;;;;;;23.60;6.80;;;;;;;11.99;54.25;100489.33;124733;1099;104658;-79
2024/03/04 11:01:01;;;;;;;17.25;6.33;;;;;;;12.01;53.67;100479.73;124570;1099;104166;-78
2024/03/04 11:03:33;;;;;;;20.73;6.30;;;;;;;12.05;53.14;100481.63;124902;1099;104182;-78
2024/03/04 11:06:10;;;;;;;18.10;6.33;;;;;;;12.07;53.16;100479.92;125095;1099;104249;-79
2024/03/04 11:08:44;;;;;;;20.90;6.77;;;;;;;12.08;53.17;100479.08;125094;1099;104188;-78
2024/03/04 11:11:17;;;;;;;22.83;6.97;;;;;;;12.11;52.44;100476.54;125159;1099;104257;-77
2024/03/04 11:13:54;;;;;;;20.00;7.10;;;;;;;12.10;52.69;100480.01;125093;1099;102073;-78
2024/03/04 11:16:31;;;;;;;22.03;7.63;;;;;;;12.14;52.88;100474.00;124737;1099;104178;-80
2024/03/04 11:19:09;;;;;;;22.13;7.13;;;;;;;12.14;52.70;100471.37;125256;1099;104318;-78
2024/03/04 11:21:43;;;;;;;23.07;7.60;;;;;;;12.20;52.51;100479.44;125214;1099;103516;-78
2024/03/04 11:24:13;;;;;;;;;;;;;;;12.22;50.73;100469.84;124687;1099;104227;-79